createdAt,value
2023-04-29T00:00:08.501Z,1.23
2023-04-29T00:02:35.775Z,1.10
2023-04-29T00:05:05.304Z,1.15
2023-04-29T00:07:36.465Z,1.23
2023-04-29T00:10:03.291Z,0.93
2023-04-29T00:12:31.913Z,1.35
2023-04-29T00:14:58.530Z,1.08
2023-04-29T00:17:25.177Z,1.30
2023-04-29T00:19:51.996Z,1.20
2023-04-29T00:22:19.082Z,1.45
2023-04-29T00:24:45.684Z,1.33
2023-04-29T00:27:12.222Z,1.48
2023-04-29T00:29:38.761Z,1.20
2023-04-29T00:32:05.473Z,1.17
2023-04-29T00:34:32.073Z,1.48
2023-04-29T00:36:58.638Z,1.40
2023-04-29T00:39:25.359Z,1.30
2023-04-29T00:41:52.575Z,1.50
2023-04-29T00:44:19.423Z,1.80
2023-04-29T00:46:46.032Z,1.70
2023-04-29T00:49:13.854Z,1.85
2023-04-29T00:51:41.206Z,1.80
2023-04-29T00:54:08.958Z,2.25
2023-04-29T00:56:36.611Z,2.75
2023-04-29T00:59:04.791Z,2.67
2023-04-29T01:01:31.547Z,2.55
2023-04-29T01:03:58.942Z,2.70
2023-04-29T01:06:59.265Z,2.40
2023-04-29T01:09:44.343Z,2.35
2023-04-29T01:12:41.594Z,2.78
2023-04-29T01:15:22.542Z,2.80
2023-04-29T01:18:10.367Z,3.00
2023-04-29T01:20:38.090Z,3.20
2023-04-29T01:23:05.054Z,3.60
2023-04-29T01:25:31.586Z,3.55
2023-04-29T01:28:45.367Z,3.55
2023-04-29T01:31:32.680Z,3.88
2023-04-29T01:34:10.674Z,3.83
2023-04-29T01:36:44.318Z,3.92
2023-04-29T01:39:27.266Z,3.83
2023-04-29T01:42:00.645Z,3.90
2023-04-29T01:44:29.743Z,4.68
2023-04-29T01:46:56.951Z,4.57
2023-04-29T01:49:27.223Z,4.30
2023-04-29T01:51:54.171Z,4.20
2023-04-29T01:54:22.438Z,4.00
2023-04-29T01:56:49.034Z,4.18
2023-04-29T01:59:15.623Z,4.30
2023-04-29T02:01:42.354Z,4.45
2023-04-29T02:04:08.925Z,4.03
2023-04-29T02:06:35.477Z,4.90
2023-04-29T02:09:02.003Z,4.50
2023-04-29T02:11:28.536Z,4.07
2023-04-29T02:13:55.114Z,4.55
2023-04-29T02:16:21.893Z,4.63
2023-04-29T02:18:48.494Z,4.80
2023-04-29T02:21:15.032Z,5.28
2023-04-29T02:23:41.664Z,5.00
2023-04-29T02:26:09.438Z,4.47
2023-04-29T02:28:36.138Z,4.90
2023-04-29T02:31:02.892Z,5.00
2023-04-29T02:33:29.441Z,5.03
2023-04-29T02:35:56.250Z,4.70
2023-04-29T02:38:22.913Z,5.30
2023-04-29T02:40:50.322Z,5.88
2023-04-29T02:43:17.139Z,5.65
2023-04-29T02:45:44.709Z,5.68
2023-04-29T02:48:11.561Z,5.80
2023-04-29T02:50:38.241Z,5.40
2023-04-29T02:53:04.819Z,5.97
2023-04-29T02:55:31.350Z,5.70
2023-04-29T02:57:57.881Z,5.90
2023-04-29T03:00:24.523Z,5.80
2023-04-29T03:02:51.188Z,6.10
2023-04-29T03:05:17.925Z,5.60
2023-04-29T03:07:44.438Z,5.78
2023-04-29T03:10:12.212Z,6.10
2023-04-29T03:12:39.525Z,6.10
2023-04-29T03:15:07.947Z,5.78
2023-04-29T03:17:35.002Z,5.97
2023-04-29T03:20:01.740Z,6.18
2023-04-29T03:22:28.404Z,6.43
2023-04-29T03:24:54.934Z,5.68
2023-04-29T03:27:21.437Z,6.55
2023-04-29T03:29:48.537Z,6.10
2023-04-29T03:32:15.173Z,5.63
2023-04-29T03:34:41.722Z,5.75
2023-04-29T03:37:08.666Z,6.40
2023-04-29T03:39:35.211Z,6.30
2023-04-29T03:42:02.856Z,6.03
2023-04-29T03:44:29.491Z,6.10
2023-04-29T03:46:56.060Z,7.35
2023-04-29T03:49:23.701Z,6.65
2023-04-29T03:51:50.322Z,6.50
2023-04-29T03:54:17.440Z,7.28
2023-04-29T03:56:44.039Z,6.30
2023-04-29T03:59:10.831Z,6.30
2023-04-29T04:01:37.375Z,6.28
2023-04-29T04:04:04.109Z,6.60
2023-04-29T04:06:31.909Z,6.47
2023-04-29T04:08:58.542Z,6.78
2023-04-29T04:11:25.298Z,6.43
2023-04-29T04:13:52.148Z,6.57
2023-04-29T04:16:18.711Z,6.72
2023-04-29T04:18:45.393Z,6.65
2023-04-29T04:21:12.709Z,7.18
2023-04-29T04:23:44.129Z,6.30
2023-04-29T04:26:10.761Z,6.43
2023-04-29T04:28:37.297Z,6.68
2023-04-29T04:31:05.188Z,7.05
2023-04-29T04:33:32.339Z,6.50
2023-04-29T04:35:58.936Z,6.05
2023-04-29T04:38:26.399Z,6.68
2023-04-29T04:40:53.076Z,6.70
2023-04-29T04:43:19.812Z,6.40
2023-04-29T04:45:46.550Z,6.93
2023-04-29T04:48:13.385Z,7.15
2023-04-29T04:50:40.189Z,7.10
2023-04-29T04:53:06.845Z,6.88
2023-04-29T04:55:33.821Z,6.75
2023-04-29T04:58:00.513Z,6.43
2023-04-29T05:00:27.025Z,7.10
2023-04-29T05:02:53.760Z,6.57
2023-04-29T05:05:20.509Z,7.10
2023-04-29T05:07:47.352Z,6.53
2023-04-29T05:10:13.968Z,6.63
2023-04-29T05:12:40.652Z,7.32
2023-04-29T05:15:07.935Z,5.68
2023-04-29T05:17:36.529Z,6.47
2023-04-29T05:20:03.529Z,6.85
2023-04-29T05:22:30.101Z,6.95
2023-04-29T05:25:02.679Z,6.00
2023-04-29T05:27:29.933Z,6.57
2023-04-29T05:29:57.007Z,7.80
2023-04-29T05:32:23.833Z,6.65
2023-04-29T05:34:50.739Z,7.28
2023-04-29T05:37:17.304Z,8.38
2023-04-29T05:39:43.922Z,7.50
2023-04-29T05:42:10.521Z,7.25
2023-04-29T05:44:37.110Z,7.30
2023-04-29T05:47:03.909Z,8.15
2023-04-29T05:49:30.496Z,7.07
2023-04-29T05:51:57.023Z,8.18
2023-04-29T05:54:23.567Z,8.65
2023-04-29T05:56:50.150Z,7.93
2023-04-29T05:59:16.675Z,7.85
2023-04-29T06:01:43.234Z,9.57
2023-04-29T06:04:09.970Z,8.98
2023-04-29T06:06:36.856Z,9.82
2023-04-29T06:09:08.438Z,8.98
2023-04-29T06:11:37.448Z,9.10
2023-04-29T06:14:04.026Z,9.18
2023-04-29T06:18:57.385Z,9.90
2023-04-29T06:21:24.008Z,9.15
2023-04-29T06:23:50.712Z,8.82
2023-04-29T06:26:17.527Z,9.18
2023-04-29T06:28:44.075Z,9.13
2023-04-29T06:31:10.780Z,9.98
2023-04-29T06:33:37.491Z,8.90
2023-04-29T06:36:04.515Z,8.77
2023-04-29T06:38:31.150Z,8.77
2023-04-29T06:41:00.749Z,9.13
2023-04-29T06:43:28.040Z,9.38
2023-04-29T06:45:54.715Z,9.60
2023-04-29T06:48:21.607Z,10.00
2023-04-29T06:50:54.995Z,9.50
2023-04-29T06:53:22.397Z,9.20
2023-04-29T06:55:49.100Z,9.40
2023-04-29T06:58:16.669Z,9.50
2023-04-29T07:00:48.364Z,9.98
2023-04-29T07:03:15.637Z,9.30
2023-04-29T07:05:45.340Z,10.55
2023-04-29T07:08:13.360Z,10.30
2023-04-29T07:10:40.459Z,9.98
2023-04-29T07:13:08.434Z,10.10
2023-04-29T07:15:36.318Z,9.52
2023-04-29T07:18:06.738Z,10.38
2023-04-29T07:20:33.437Z,10.55
2023-04-29T07:23:00.007Z,11.00
2023-04-29T07:25:29.302Z,10.30
2023-04-29T07:27:56.665Z,10.82
2023-04-29T07:30:24.155Z,10.00
2023-04-29T07:32:50.719Z,9.70
2023-04-29T07:35:17.429Z,10.38
2023-04-29T07:37:44.187Z,10.43
2023-04-29T07:40:11.403Z,9.43
2023-04-29T07:42:38.010Z,9.98
2023-04-29T07:45:05.582Z,10.15
2023-04-29T07:47:32.186Z,9.50
2023-04-29T07:49:59.072Z,9.48
2023-04-29T07:52:25.607Z,10.25
2023-04-29T07:54:52.361Z,10.23
2023-04-29T07:57:19.059Z,10.63
2023-04-29T07:59:45.711Z,10.75
2023-04-29T08:02:12.233Z,10.23
2023-04-29T08:04:42.602Z,10.35
2023-04-29T08:07:09.672Z,10.52
2023-04-29T08:09:36.255Z,10.32
2023-04-29T08:12:02.903Z,10.02
2023-04-29T08:14:29.492Z,10.82
2023-04-29T08:16:56.110Z,10.65
2023-04-29T08:19:22.883Z,10.10
2023-04-29T08:21:49.474Z,10.77
2023-04-29T08:24:16.009Z,10.38
2023-04-29T08:26:42.949Z,10.70
2023-04-29T08:29:09.513Z,10.70
2023-04-29T08:31:36.232Z,11.13
2023-04-29T08:34:02.914Z,11.48
2023-04-29T08:36:29.892Z,10.50
2023-04-29T08:38:56.619Z,10.77
2023-04-29T08:41:23.400Z,10.95
2023-04-29T08:43:50.037Z,11.20
2023-04-29T08:46:18.163Z,10.82
2023-04-29T08:48:45.478Z,10.65
2023-04-29T08:51:16.074Z,11.60
2023-04-29T08:53:42.797Z,12.15
2023-04-29T08:56:16.504Z,11.07
2023-04-29T08:58:43.573Z,12.27
2023-04-29T09:01:11.105Z,11.73
2023-04-29T09:04:15.916Z,11.45
2023-04-29T09:06:42.460Z,9.82
2023-04-29T09:09:09.878Z,9.48
2023-04-29T09:11:37.399Z,9.82
2023-04-29T09:14:04.507Z,10.02
2023-04-29T09:16:31.340Z,9.10
2023-04-29T09:18:58.187Z,9.55
2023-04-29T09:21:31.564Z,8.45
2023-04-29T09:24:02.639Z,10.18
2023-04-29T09:26:43.974Z,9.40
2023-04-29T09:29:18.303Z,8.82
2023-04-29T09:31:45.911Z,9.07
2023-04-29T09:34:14.265Z,8.90
2023-04-29T09:36:49.759Z,9.45
2023-04-29T09:39:19.377Z,8.57
2023-04-29T09:41:54.947Z,8.93
2023-04-29T09:44:25.692Z,8.40
2023-04-29T09:47:09.134Z,8.57
2023-04-29T09:49:45.358Z,8.85
2023-04-29T09:52:14.966Z,8.50
2023-04-29T09:54:42.929Z,8.20
2023-04-29T09:57:11.801Z,8.75
2023-04-29T09:59:40.258Z,8.10
2023-04-29T10:02:18.264Z,8.80
2023-04-29T10:04:47.061Z,8.55
2023-04-29T10:07:16.626Z,8.65
2023-04-29T10:09:45.904Z,7.95
2023-04-29T10:12:16.375Z,7.95
2023-04-29T10:14:48.973Z,7.60
2023-04-29T10:17:27.286Z,7.38
2023-04-29T10:20:05.998Z,9.15
2023-04-29T10:22:47.942Z,7.90
2023-04-29T10:25:20.025Z,7.95
2023-04-29T10:30:19.955Z,8.00
2023-04-29T10:32:52.152Z,8.25
2023-04-29T10:35:23.281Z,8.25
2023-04-29T10:37:50.695Z,8.52
2023-04-29T10:40:18.774Z,8.02
2023-04-29T10:42:48.386Z,8.77
2023-04-29T10:45:27.570Z,8.77
2023-04-29T10:48:14.927Z,8.13
2023-04-29T10:50:47.227Z,8.85
2023-04-29T10:53:22.045Z,8.48
2023-04-29T10:55:53.147Z,8.10
2023-04-29T10:58:37.967Z,8.57
2023-04-29T11:01:05.538Z,8.40
2023-04-29T11:04:00.434Z,10.23
2023-04-29T11:06:36.499Z,8.60
2023-04-29T11:09:14.662Z,9.23
2023-04-29T11:11:46.444Z,9.00
2023-04-29T11:14:14.261Z,8.77
2023-04-29T11:16:49.422Z,8.65
2023-04-29T11:19:17.960Z,10.02
2023-04-29T11:21:47.045Z,9.93
2023-04-29T11:24:16.207Z,9.93
2023-04-29T11:26:44.030Z,9.73
2023-04-29T11:29:10.814Z,8.60
2023-04-29T11:31:39.372Z,9.13
2023-04-29T11:34:07.413Z,9.48
2023-04-29T11:36:34.516Z,8.70
2023-04-29T11:39:03.621Z,8.68
2023-04-29T11:41:31.652Z,8.32
2023-04-29T11:43:59.733Z,8.05
2023-04-29T11:46:28.248Z,7.32
2023-04-29T11:48:54.972Z,7.10
2023-04-29T11:51:22.560Z,7.18
2023-04-29T11:53:49.383Z,7.15
2023-04-29T11:56:16.061Z,6.90
2023-04-29T11:58:43.814Z,6.50
2023-04-29T12:01:11.325Z,6.68
2023-04-29T12:03:38.249Z,7.00
2023-04-29T12:06:06.599Z,7.18
2023-04-29T12:08:34.890Z,6.97
2023-04-29T12:11:01.791Z,6.50
2023-04-29T12:13:31.602Z,7.28
2023-04-29T12:15:58.977Z,7.43
2023-04-29T12:18:27.650Z,7.40
2023-04-29T12:20:57.416Z,7.72
2023-04-29T12:23:27.975Z,6.53
2023-04-29T12:25:57.827Z,7.00
2023-04-29T12:28:25.521Z,6.35
2023-04-29T12:30:56.741Z,6.55
2023-04-29T12:33:27.062Z,6.23
2023-04-29T12:35:56.955Z,6.93
2023-04-29T12:38:27.742Z,6.07
2023-04-29T12:40:55.459Z,6.50
2023-04-29T12:43:33.813Z,6.85
2023-04-29T12:46:05.103Z,6.97
2023-04-29T12:48:33.475Z,5.60
2023-04-29T12:51:01.729Z,5.30
2023-04-29T12:53:30.260Z,5.85
2023-04-29T12:55:57.741Z,6.13
2023-04-29T12:58:24.342Z,6.28
2023-04-29T13:00:51.138Z,5.88
2023-04-29T13:03:19.168Z,5.97
2023-04-29T13:05:51.437Z,5.93
2023-04-29T13:08:19.371Z,5.97
2023-04-29T13:10:46.350Z,5.50
2023-04-29T13:13:13.209Z,5.80
2023-04-29T13:15:39.776Z,6.20
2023-04-29T13:18:06.524Z,6.32
2023-04-29T13:20:39.866Z,6.30
2023-04-29T13:23:08.116Z,7.53
2023-04-29T13:25:34.647Z,6.43
2023-04-29T13:28:01.150Z,6.85
2023-04-29T13:30:27.692Z,7.00
2023-04-29T13:32:56.712Z,6.88
2023-04-29T13:35:29.659Z,7.38
2023-04-29T13:37:57.022Z,7.60
2023-04-29T13:40:27.503Z,6.80
2023-04-29T13:43:02.149Z,6.80
2023-04-29T13:45:39.046Z,6.72
2023-04-29T13:48:18.361Z,6.80
2023-04-29T13:53:51.228Z,6.50
2023-04-29T13:59:18.893Z,5.78
2023-04-29T14:02:14.857Z,5.97
2023-04-29T14:04:11.373Z,5.90
2023-04-29T14:06:38.329Z,6.32
2023-04-29T14:09:04.890Z,5.40
2023-04-29T14:11:36.389Z,5.55
2023-04-29T14:14:03.524Z,5.78
2023-04-29T14:16:30.783Z,5.93
2023-04-29T14:18:57.681Z,5.28
2023-04-29T14:21:24.263Z,5.65
2023-04-29T14:23:51.142Z,5.97
2023-04-29T14:26:28.046Z,5.93
2023-04-29T14:28:59.713Z,6.07
2023-04-29T14:31:28.169Z,5.88
2023-04-29T14:33:56.102Z,6.25
2023-04-29T14:36:22.970Z,6.28
2023-04-29T14:38:49.588Z,6.22
2023-04-29T14:41:16.213Z,5.75
2023-04-29T14:43:42.816Z,5.35
2023-04-29T14:46:09.457Z,5.20
2023-04-29T14:48:36.434Z,5.32
2023-04-29T14:51:03.055Z,5.45
2023-04-29T14:53:29.664Z,5.00
2023-04-29T14:55:56.270Z,5.10
2023-04-29T14:58:22.884Z,5.40
2023-04-29T15:00:50.998Z,5.25
2023-04-29T15:03:22.482Z,5.47
2023-04-29T15:08:19.420Z,4.88
2023-04-29T15:10:49.941Z,5.10
2023-04-29T15:13:16.834Z,4.50
2023-04-29T15:15:43.372Z,4.93
2023-04-29T15:18:10.029Z,5.18
2023-04-29T15:20:37.464Z,5.18
2023-04-29T15:23:05.512Z,4.90
2023-04-29T15:25:36.543Z,5.00
2023-04-29T15:28:04.822Z,4.90
2023-04-29T15:30:32.241Z,4.20
2023-04-29T15:32:58.924Z,4.35
2023-04-29T15:35:25.625Z,4.40
2023-04-29T15:37:52.243Z,4.35
2023-04-29T15:40:19.405Z,4.45
2023-04-29T15:42:46.041Z,4.40
2023-04-29T15:45:12.773Z,4.15
2023-04-29T15:47:39.454Z,4.43
2023-04-29T15:50:07.208Z,4.45
2023-04-29T15:52:33.857Z,3.97
2023-04-29T15:55:00.392Z,5.38
2023-04-29T15:57:27.252Z,4.35
2023-04-29T15:59:54.242Z,4.35
2023-04-29T16:02:21.577Z,4.25
2023-04-29T16:04:48.405Z,4.30
2023-04-29T16:07:15.072Z,4.30
2023-04-29T16:09:41.690Z,4.25
2023-04-29T16:12:08.643Z,4.95
2023-04-29T16:14:35.205Z,4.60
2023-04-29T16:17:02.009Z,4.20
2023-04-29T16:19:28.746Z,3.83
2023-04-29T16:21:55.568Z,6.20
2023-04-29T16:24:22.239Z,5.28
2023-04-29T16:26:50.422Z,3.40
2023-04-29T16:29:18.424Z,3.33
2023-04-29T16:31:45.425Z,3.03
2023-04-29T16:34:12.706Z,3.47
2023-04-29T16:36:39.445Z,2.83
2023-04-29T16:39:06.276Z,2.80
2023-04-29T16:41:33.180Z,3.53
2023-04-29T16:43:59.723Z,2.78
2023-04-29T16:46:26.333Z,2.13
2023-04-29T16:48:56.745Z,4.20
2023-04-29T16:51:26.626Z,2.40
2023-04-29T16:53:53.448Z,2.60
2023-04-29T16:56:21.610Z,2.17
2023-04-29T16:58:48.644Z,2.40
2023-04-29T17:01:15.918Z,2.33
2023-04-29T17:03:42.616Z,2.30
2023-04-29T17:06:09.353Z,2.08
2023-04-29T17:08:36.154Z,1.80
2023-04-29T17:11:04.925Z,2.00
2023-04-29T17:13:31.688Z,1.98
2023-04-29T17:15:58.511Z,2.00
2023-04-29T17:18:25.059Z,1.90
2023-04-29T17:20:51.618Z,2.00
2023-04-29T17:23:18.350Z,1.50
2023-04-29T17:25:45.156Z,2.17
2023-04-29T17:28:11.776Z,2.25
2023-04-29T17:30:38.347Z,2.03
2023-04-29T17:33:07.799Z,2.33
2023-04-29T17:35:34.983Z,2.30
2023-04-29T17:38:01.504Z,2.10
2023-04-29T17:40:28.044Z,2.50
2023-04-29T17:42:54.660Z,2.40
2023-04-29T17:45:21.210Z,2.95
2023-04-29T17:47:48.481Z,3.10
2023-04-29T17:50:15.409Z,2.60
2023-04-29T17:52:42.708Z,2.80
2023-04-29T17:55:10.079Z,3.05
2023-04-29T17:57:38.144Z,3.15
2023-04-29T18:00:07.482Z,3.40
2023-04-29T18:02:34.679Z,3.65
2023-04-29T18:05:03.103Z,4.03
2023-04-29T18:09:56.405Z,4.43
2023-04-29T18:12:24.127Z,3.85
2023-04-29T18:14:51.835Z,3.47
2023-04-29T18:17:18.639Z,3.30
2023-04-29T18:19:47.797Z,3.35
2023-04-29T18:22:14.576Z,3.28
2023-04-29T18:24:41.188Z,3.50
2023-04-29T18:27:07.910Z,3.22
2023-04-29T18:29:34.430Z,3.40
2023-04-29T18:32:01.112Z,3.22
2023-04-29T18:34:27.748Z,3.50
2023-04-29T18:36:54.277Z,3.50
2023-04-29T18:39:20.960Z,3.55
2023-04-29T18:41:47.531Z,3.50
2023-04-29T18:44:14.135Z,3.20
2023-04-29T18:46:41.162Z,3.40
2023-04-29T18:49:08.674Z,3.67
2023-04-29T18:51:35.481Z,4.43
2023-04-29T18:56:28.543Z,4.32
2023-04-29T18:58:55.091Z,4.20
2023-04-29T19:01:21.715Z,4.53
2023-04-29T19:03:48.276Z,3.95
2023-04-29T19:06:14.864Z,4.03
2023-04-29T19:08:41.492Z,3.38
2023-04-29T19:13:34.436Z,3.72
2023-04-29T19:16:01.106Z,3.67
2023-04-29T19:18:27.997Z,4.07
2023-04-29T19:20:56.084Z,4.40
2023-04-29T19:23:22.695Z,4.07
2023-04-29T19:25:49.278Z,4.10
2023-04-29T19:28:15.877Z,4.53
2023-04-29T19:30:42.495Z,4.65
2023-04-29T19:33:09.096Z,4.68
2023-04-29T19:35:35.720Z,4.53
2023-04-29T19:38:02.473Z,4.60
2023-04-29T19:40:29.049Z,4.30
2023-04-29T19:42:55.619Z,4.40
2023-04-29T19:45:22.300Z,3.90
2023-04-29T19:47:50.011Z,4.38
2023-04-29T19:50:16.630Z,4.10
2023-04-29T19:52:43.159Z,4.30
2023-04-29T19:55:09.859Z,4.25
2023-04-29T19:57:36.449Z,5.10
2023-04-29T20:00:04.571Z,4.15
2023-04-29T20:02:32.931Z,4.28
2023-04-29T20:04:59.615Z,4.40
2023-04-29T20:07:26.156Z,4.30
2023-04-29T20:09:52.843Z,4.22
2023-04-29T20:12:19.598Z,6.22
2023-04-29T20:17:13.546Z,18.37
2023-04-29T20:19:40.079Z,22.00
2023-04-29T20:22:06.708Z,22.65
2023-04-29T20:24:33.334Z,22.10
2023-04-29T20:26:59.974Z,27.13
2023-04-29T20:29:27.161Z,25.00
2023-04-29T20:31:53.681Z,22.02
2023-04-29T20:34:20.246Z,19.52
2023-04-29T20:36:46.831Z,22.10
2023-04-29T20:39:13.473Z,31.27
2023-04-29T20:41:40.169Z,25.20
2023-04-29T20:44:06.657Z,24.67
2023-04-29T20:46:33.206Z,27.25
2023-04-29T20:48:59.811Z,31.65
2023-04-29T20:51:26.846Z,26.95
2023-04-29T20:53:53.649Z,27.45
2023-04-29T20:56:20.236Z,25.83
2023-04-29T20:58:46.848Z,27.63
2023-04-29T21:01:13.539Z,26.65
2023-04-29T21:03:40.627Z,25.42
2023-04-29T21:06:07.572Z,23.65
2023-04-29T21:08:34.124Z,20.52
2023-04-29T21:11:01.637Z,20.77
2023-04-29T21:13:28.266Z,11.52
2023-04-29T21:15:54.802Z,11.15
2023-04-29T21:18:21.385Z,10.45
2023-04-29T21:20:48.055Z,10.52
2023-04-29T21:23:14.610Z,9.23
2023-04-29T21:25:41.177Z,9.45
2023-04-29T21:28:07.752Z,9.65
2023-04-29T21:30:34.304Z,8.95
2023-04-29T21:33:00.991Z,9.23
2023-04-29T21:35:27.674Z,9.10
2023-04-29T21:37:54.566Z,10.68
2023-04-29T21:40:21.408Z,11.05
2023-04-29T21:42:48.178Z,11.00
2023-04-29T21:45:18.224Z,11.43
2023-04-29T21:47:45.260Z,11.00
2023-04-29T21:50:12.130Z,12.10
2023-04-29T21:52:38.785Z,12.10
2023-04-29T21:55:05.835Z,12.07
2023-04-29T21:57:43.547Z,12.57
2023-04-29T22:00:20.565Z,12.80
2023-04-29T22:02:47.229Z,12.50
2023-04-29T22:05:13.908Z,12.75
2023-04-29T22:07:40.715Z,13.32
2023-04-29T22:10:07.719Z,14.20
2023-04-29T22:12:34.231Z,13.93
2023-04-29T22:15:00.852Z,14.27
2023-04-29T22:17:27.603Z,14.20
2023-04-29T22:19:54.307Z,14.27
2023-04-29T22:22:21.023Z,13.93
2023-04-29T22:24:47.584Z,13.68
2023-04-29T22:27:14.188Z,14.30
2023-04-29T22:29:40.968Z,14.55
2023-04-29T22:32:07.638Z,14.63
2023-04-29T22:34:34.360Z,14.90
2023-04-29T22:37:00.875Z,15.52
2023-04-29T22:39:27.434Z,15.50
2023-04-29T22:41:54.018Z,14.68
2023-04-29T22:44:20.729Z,15.07
2023-04-29T22:46:47.360Z,16.30
2023-04-29T22:49:13.990Z,16.02
2023-04-29T22:51:41.435Z,16.40
2023-04-29T22:54:08.221Z,15.32
2023-04-29T22:56:34.750Z,15.75
2023-04-29T22:59:01.320Z,16.10
2023-04-29T23:01:27.970Z,15.20
2023-04-29T23:03:54.536Z,15.15
2023-04-29T23:06:21.470Z,14.88
2023-04-29T23:08:48.249Z,15.60
2023-04-29T23:11:14.810Z,15.18
2023-04-29T23:13:41.499Z,14.38
2023-04-29T23:16:10.624Z,15.55
2023-04-29T23:18:37.635Z,15.65
2023-04-29T23:21:04.413Z,15.82
2023-04-29T23:23:30.936Z,16.58
2023-04-29T23:25:57.541Z,16.33
2023-04-29T23:28:24.840Z,16.50
2023-04-29T23:30:51.526Z,16.75
2023-04-29T23:33:18.050Z,17.23
2023-04-29T23:35:49.659Z,17.70
2023-04-29T23:38:16.748Z,17.60
2023-04-29T23:40:43.401Z,17.70
2023-04-29T23:43:10.045Z,17.88
2023-04-29T23:45:36.598Z,18.35
2023-04-29T23:48:03.366Z,17.33
2023-04-29T23:50:29.953Z,17.95
2023-04-29T23:52:56.688Z,17.27
2023-04-29T23:55:23.272Z,17.13
2023-04-29T23:57:49.932Z,18.65
